Time;durP1;ratioP1;P1;durP2;ratioP2;P2;SDS_P1;SDS_P2;PMS_P1;PMS_P2;Temp;Humidity;BMP_temperature;BMP_pressure;BME280_temperature;BME280_humidity;BME280_pressure;Samples;Min_cycle;Max_cycle;Signal;HPM_P1;HPM_P2
2022/05/30 00:00:08;;;;;;;357.33;215.73;;;;;;;21.66;61.91;98696.38;335716;29;1847;-78
2022/05/30 00:00:20;;;;;;;360.02;216.55;;;;;;;21.64;62.42;98693.03;338122;29;2126;-78
2022/05/30 00:00:31;;;;;;;357.75;215.82;;;;;;;21.65;62.19;98687.53;338554;29;1437;-77
2022/05/30 00:00:41;;;;;;;356.30;215.20;;;;;;;21.65;62.27;98684.88;338428;29;1191;-77
2022/05/30 00:00:52;;;;;;;354.75;216.07;;;;;;;21.65;62.49;98689.38;337091;29;2375;-77
2022/05/30 00:01:13;;;;;;;354.27;212.57;;;;;;;21.64;62.15;98687.69;336979;29;1398;-77
2022/05/30 00:01:24;;;;;;;350.67;207.57;;;;;;;21.65;62.55;98690.19;336821;29;1600;-77
2022/05/30 00:01:35;;;;;;;353.00;211.53;;;;;;;21.67;62.37;98692.69;338926;29;2220;-77
2022/05/30 00:01:46;;;;;;;352.27;211.55;;;;;;;21.66;62.26;98691.03;339388;29;1859;-77
2022/05/30 00:01:57;;;;;;;351.48;212.88;;;;;;;21.66;62.28;98691.03;335912;29;1036;-77
2022/05/30 00:02:10;;;;;;;349.92;212.55;;;;;;;21.65;62.40;98695.53;337344;29;1582;-77
2022/05/30 00:02:22;;;;;;;350.77;214.20;;;;;;;21.65;62.69;98684.03;336415;29;1442;-76
2022/05/30 00:02:33;;;;;;;349.02;212.25;;;;;;;21.66;62.69;98689.19;336194;29;1501;-78
2022/05/30 00:02:43;;;;;;;348.15;211.88;;;;;;;21.66;62.77;98685.72;339736;29;1287;-77
2022/05/30 00:02:54;;;;;;;350.17;212.10;;;;;;;21.64;62.86;98685.88;340833;28;1843;-77
2022/05/30 00:03:04;;;;;;;352.97;214.50;;;;;;;21.64;62.59;98685.88;337012;29;1691;-77
2022/05/30 00:03:15;;;;;;;359.35;214.93;;;;;;;21.66;62.67;98685.72;338331;29;1383;-76
2022/05/30 00:03:25;;;;;;;359.90;216.13;;;;;;;21.66;62.58;98686.50;339653;29;1656;-75
2022/05/30 00:03:36;;;;;;;361.73;216.87;;;;;;;21.66;62.64;98686.50;337008;29;1176;-76
2022/05/30 00:03:46;;;;;;;359.52;216.93;;;;;;;21.65;62.55;98684.88;339586;29;1539;-76
2022/05/30 00:03:57;;;;;;;358.87;214.63;;;;;;;21.66;62.51;98688.38;339652;29;1235;-76
2022/05/30 00:04:07;;;;;;;357.77;216.93;;;;;;;21.66;62.39;98683.03;336858;29;2031;-77
2022/05/30 00:04:18;;;;;;;355.33;213.57;;;;;;;21.64;62.38;98687.69;338852;29;1466;-77
2022/05/30 00:04:28;;;;;;;353.63;212.82;;;;;;;21.66;62.85;98691.84;339681;29;1237;-77
2022/05/30 00:04:39;;;;;;;352.87;210.87;;;;;;;21.63;62.73;98688.69;338428;29;1893;-77
2022/05/30 00:04:49;;;;;;;353.55;211.95;;;;;;;21.61;62.91;98691.50;340882;29;2104;-77
2022/05/30 00:05:00;;;;;;;354.10;213.50;;;;;;;21.62;62.95;98692.34;339510;29;1393;-77
2022/05/30 00:05:11;;;;;;;352.98;211.93;;;;;;;21.60;62.65;98683.66;335879;29;1152;-77
2022/05/30 00:05:21;;;;;;;352.30;209.68;;;;;;;21.58;62.92;98682.00;340232;29;2053;-77
2022/05/30 00:05:32;;;;;;;351.77;208.35;;;;;;;21.58;62.81;98686.47;339635;29;1592;-77
2022/05/30 00:05:47;;;;;;;351.83;209.90;;;;;;;21.56;63.00;98680.47;334628;29;999;-77
2022/05/30 00:05:57;;;;;;;349.48;209.98;;;;;;;21.57;62.79;98685.66;337106;29;4069;-77
2022/05/30 00:06:09;;;;;;;349.83;210.60;;;;;;;21.57;62.90;98688.31;337769;29;4982;-77
2022/05/30 00:06:20;;;;;;;353.80;210.32;;;;;;;21.56;62.68;98683.13;339764;28;1353;-77
2022/05/30 00:06:31;;;;;;;355.60;210.90;;;;;;;21.55;62.77;98679.63;336923;29;1413;-77
2022/05/30 00:06:42;;;;;;;356.43;213.07;;;;;;;21.55;62.97;98679.63;337161;29;3231;-77
2022/05/30 00:06:53;;;;;;;352.92;212.98;;;;;;;21.56;62.95;98691.97;341448;28;1414;-77
2022/05/30 00:07:04;;;;;;;354.43;212.47;;;;;;;21.55;62.65;98684.97;340946;29;1218;-77
2022/05/30 00:07:15;;;;;;;353.45;210.80;;;;;;;21.55;62.61;98684.97;339767;29;950;-77
2022/05/30 00:07:25;;;;;;;355.23;212.77;;;;;;;21.54;62.48;98677.13;339725;29;2011;-77
2022/05/30 00:07:36;;;;;;;358.00;216.52;;;;;;;21.54;62.58;98685.97;339693;29;1250;-77
2022/05/30 00:07:47;;;;;;;357.15;214.80;;;;;;;21.55;62.68;98684.13;339076;29;1537;-77
2022/05/30 00:07:58;;;;;;;353.90;212.73;;;;;;;21.54;63.20;98683.28;337886;29;1668;-77
2022/05/30 00:08:08;;;;;;;350.75;207.65;;;;;;;21.53;62.54;98686.94;336158;29;1532;-77
2022/05/30 00:08:19;;;;;;;352.58;210.57;;;;;;;21.54;62.68;98685.97;339722;29;902;-77
2022/05/30 00:08:29;;;;;;;352.08;210.95;;;;;;;21.54;62.46;98682.47;339734;29;952;-77
2022/05/30 00:08:40;;;;;;;351.93;211.67;;;;;;;21.52;62.80;98682.59;338850;29;2160;-76
2022/05/30 00:08:51;;;;;;;351.02;210.48;;;;;;;21.52;62.38;98685.28;338334;29;2672;-77
2022/05/30 00:09:01;;;;;;;352.08;207.93;;;;;;;21.53;62.16;98686.94;338176;29;1584;-77
2022/05/30 00:09:13;;;;;;;352.03;210.70;;;;;;;21.53;62.68;98680.78;335683;29;2236;-77
2022/05/30 00:09:24;;;;;;;351.05;209.30;;;;;;;21.54;62.73;98682.47;336588;29;1901;-77
2022/05/30 00:09:34;;;;;;;351.17;209.60;;;;;;;21.52;62.62;98677.28;338233;29;1667;-77
2022/05/30 00:09:47;;;;;;;352.57;207.90;;;;;;;21.53;62.63;98680.78;340570;29;1719;-77
2022/05/30 00:09:58;;;;;;;349.02;209.35;;;;;;;21.52;62.46;98687.94;336762;29;1510;-77
2022/05/30 00:10:08;;;;;;;343.27;205.55;;;;;;;21.48;62.37;98678.59;336553;29;889;-77
2022/05/30 00:10:22;;;;;;;345.67;207.33;;;;;;;21.48;62.50;98683.91;335960;29;863;-77
2022/05/30 00:10:32;;;;;;;347.88;208.00;;;;;;;21.48;62.05;98683.91;339589;29;1431;-77
2022/05/30 00:10:43;;;;;;;350.97;210.93;;;;;;;21.49;62.46;98680.25;336985;29;1291;-77
2022/05/30 00:10:53;;;;;;;348.77;208.68;;;;;;;21.48;62.71;98683.91;335793;29;1300;-78
2022/05/30 00:11:04;;;;;;;350.03;207.33;;;;;;;21.48;62.38;98686.56;337105;29;1793;-77
2022/05/30 00:11:15;;;;;;;348.30;206.05;;;;;;;21.46;62.62;98674.41;338717;29;2468;-76
2022/05/30 00:11:27;;;;;;;350.98;207.57;;;;;;;21.45;62.52;98673.56;337643;29;2112;-76
2022/05/30 00:11:38;;;;;;;349.80;205.85;;;;;;;21.47;62.70;98681.41;336973;29;2217;-76
2022/05/30 00:11:50;;;;;;;348.60;205.60;;;;;;;21.46;62.59;98685.88;339770;29;963;-76
2022/05/30 00:12:01;;;;;;;351.13;205.57;;;;;;;21.47;62.50;98676.91;340774;29;1415;-76
2022/05/30 00:12:12;;;;;;;351.05;206.13;;;;;;;21.46;62.12;98680.56;339024;29;2503;-76
2022/05/30 00:12:22;;;;;;;353.77;206.80;;;;;;;21.50;62.44;98684.59;337057;29;1477;-76
2022/05/30 00:12:35;;;;;;;353.77;208.43;;;;;;;21.50;62.09;98687.25;335900;29;2272;-76
2022/05/30 00:12:46;;;;;;;354.60;205.15;;;;;;;21.51;62.45;98678.28;339755;29;885;-76
2022/05/30 00:12:56;;;;;;;356.67;210.80;;;;;;;21.50;62.41;98673.09;338521;29;2129;-76
2022/05/30 00:13:06;;;;;;;356.33;211.93;;;;;;;21.54;62.08;98680.63;336771;29;1815;-76
2022/05/30 00:13:17;;;;;;;353.73;208.70;;;;;;;21.54;62.29;98672.63;338515;29;827;-76
2022/05/30 00:13:27;;;;;;;353.53;206.67;;;;;;;21.54;62.36;98683.28;340304;29;2482;-76
2022/05/30 00:13:38;;;;;;;353.15;206.52;;;;;;;21.55;62.12;98682.31;340959;29;1421;-77
2022/05/30 00:13:48;;;;;;;355.77;210.07;;;;;;;21.55;62.01;98681.47;340904;29;1353;-77
2022/05/30 00:13:59;;;;;;;355.92;210.55;;;;;;;21.53;62.11;98686.94;339652;29;1811;-76
2022/05/30 00:14:09;;;;;;;355.70;210.43;;;;;;;21.53;62.05;98681.63;337229;29;1791;-77
2022/05/30 00:14:19;;;;;;;353.95;211.55;;;;;;;21.53;62.36;98680.78;336901;29;1434;-77
2022/05/30 00:14:30;;;;;;;351.93;209.87;;;;;;;21.50;62.18;98681.94;338330;29;1501;-77
2022/05/30 00:14:40;;;;;;;352.27;208.88;;;;;;;21.51;62.26;98685.44;338944;29;1702;-76
2022/05/30 00:14:51;;;;;;;352.23;209.63;;;;;;;21.53;62.13;98686.09;339617;29;1493;-76
2022/05/30 00:15:02;;;;;;;351.37;210.13;;;;;;;21.54;62.00;98687.78;339624;29;1387;-76
2022/05/30 00:15:15;;;;;;;357.00;209.00;;;;;;;21.53;62.50;98684.28;338533;28;4423;-76
2022/05/30 00:15:25;;;;;;;353.38;203.05;;;;;;;21.52;62.70;98684.44;338341;29;5353;-76
2022/05/30 00:15:36;;;;;;;353.50;204.80;;;;;;;21.50;62.52;98679.25;337253;29;1894;-76
2022/05/30 00:15:47;;;;;;;352.27;206.85;;;;;;;21.52;62.38;98689.75;336939;29;5194;-76
2022/05/30 00:15:57;;;;;;;355.48;210.98;;;;;;;21.51;62.45;98683.59;339460;29;1425;-75
2022/05/30 00:16:10;;;;;;;352.93;212.57;;;;;;;21.52;62.24;98685.28;340172;28;1974;-77
2022/05/30 00:16:24;;;;;;;355.15;211.45;;;;;;;21.52;62.19;98681.78;339715;29;1426;-77
2022/05/30 00:16:35;;;;;;;354.25;208.80;;;;;;;21.49;62.18;98685.59;336973;29;2315;-76
2022/05/30 00:16:45;;;;;;;351.55;207.32;;;;;;;21.50;62.42;98681.09;337043;29;1156;-76
2022/05/30 00:16:56;;;;;;;351.20;206.17;;;;;;;21.49;62.47;98679.41;336413;29;1707;-76
2022/05/30 00:17:07;;;;;;;354.73;210.60;;;;;;;21.49;62.44;98688.25;336990;29;1863;-76
2022/05/30 00:17:18;;;;;;;356.16;212.38;;;;;;;21.47;62.35;98682.22;340545;29;2170;-76
2022/05/30 00:17:29;;;;;;;353.83;208.13;;;;;;;21.49;62.19;98680.25;339382;29;1761;-76
2022/05/30 00:17:40;;;;;;;353.73;205.98;;;;;;;21.50;62.15;98681.94;340974;28;2722;-76
2022/05/30 00:17:54;;;;;;;353.93;205.73;;;;;;;21.49;62.62;98690.91;337911;29;1107;-76
2022/05/30 00:18:07;;;;;;;351.00;207.27;;;;;;;21.49;62.08;98685.59;340927;29;1455;-76
2022/05/30 00:18:18;;;;;;;352.10;207.82;;;;;;;21.50;62.40;98689.91;340894;29;1333;-76
2022/05/30 00:18:28;;;;;;;353.90;208.63;;;;;;;21.50;62.48;98691.75;339721;29;2336;-76
2022/05/30 00:18:39;;;;;;;352.33;206.55;;;;;;;21.49;62.37;98690.91;338194;29;2437;-76
2022/05/30 00:18:50;;;;;;;348.63;203.77;;;;;;;21.48;62.40;98688.41;338547;29;807;-76
2022/05/30 00:19:00;;;;;;;346.23;201.95;;;;;;;21.46;62.18;98693.88;339573;29;2454;-76
2022/05/30 00:19:11;;;;;;;348.65;204.63;;;;;;;21.44;62.45;98685.19;338720;29;1880;-76
2022/05/30 00:19:21;;;;;;;351.70;206.37;;;;;;;21.45;62.37;98694.88;335722;29;2423;-76
2022/05/30 00:19:31;;;;;;;354.47;207.43;;;;;;;21.46;62.35;98688.53;337024;29;977;-76
2022/05/30 00:19:42;;;;;;;352.88;206.32;;;;;;;21.46;62.01;98695.69;339053;29;1532;-76
2022/05/30 00:19:52;;;;;;;353.80;206.40;;;;;;;21.45;62.38;98689.53;338566;29;1248;-76
2022/05/30 00:20:04;;;;;;;353.00;205.27;;;;;;;21.46;62.17;98696.53;337067;29;945;-77
2022/05/30 00:20:15;;;;;;;354.17;202.73;;;;;;;21.46;62.26;98693.88;337010;29;1341;-76
2022/05/30 00:20:25;;;;;;;353.07;200.97;;;;;;;21.46;62.25;98691.22;338363;29;1492;-76
2022/05/30 00:20:36;;;;;;;350.95;201.43;;;;;;;21.46;62.29;98695.69;337173;29;1474;-76
2022/05/30 00:20:47;;;;;;;351.40;202.50;;;;;;;21.44;62.17;98695.84;339637;29;1227;-76
2022/05/30 00:20:58;;;;;;;356.05;202.23;;;;;;;21.44;62.10;98695.84;339688;29;1540;-76
2022/05/30 00:21:08;;;;;;;360.13;204.43;;;;;;;21.44;62.47;98693.19;339906;29;1473;-77
2022/05/30 00:21:19;;;;;;;357.45;206.27;;;;;;;;;;340927;29;1266;-77
2022/05/30 00:21:29;;;;;;;354.77;206.27;;;;;;;21.44;62.65;98698.50;340886;29;2562;-77
2022/05/30 00:21:40;;;;;;;351.97;203.20;;;;;;;;;;337738;29;1314;-77
2022/05/30 00:21:52;;;;;;;353.23;198.97;;;;;;;21.44;62.62;98693.19;340855;29;1324;-77
2022/05/30 00:22:03;;;;;;;351.85;200.25;;;;;;;21.44;62.46;98703.84;338263;29;1495;-77
2022/05/30 00:22:14;;;;;;;352.67;201.20;;;;;;;21.41;62.32;98693.50;336619;29;2041;-77
2022/05/30 00:22:25;;;;;;;351.90;202.35;;;;;;;21.41;62.83;98703.31;337471;29;1383;-76
2022/05/30 00:22:35;;;;;;;354.30;201.93;;;;;;;21.40;62.75;98702.47;339606;29;1299;-77
2022/05/30 00:22:47;;;;;;;352.77;200.43;;;;;;;21.41;62.76;98701.47;338204;29;1735;-77
2022/05/30 00:22:57;;;;;;;351.00;200.82;;;;;;;21.41;62.78;98703.31;339646;29;1381;-77
2022/05/30 00:23:08;;;;;;;350.70;204.40;;;;;;;21.40;62.75;98702.47;339740;29;1828;-77
2022/05/30 00:23:18;;;;;;;350.10;203.95;;;;;;;21.40;63.00;98704.31;338207;29;1633;-77
2022/05/30 00:23:28;;;;;;;348.63;201.23;;;;;;;21.38;62.96;98704.44;339692;29;1330;-77
2022/05/30 00:23:40;;;;;;;347.77;198.80;;;;;;;21.39;62.99;98702.63;340942;29;1706;-77
2022/05/30 00:23:54;;;;;;;347.96;201.14;;;;;;;21.39;63.44;98705.28;337004;29;1305;-78
2022/05/30 00:24:05;;;;;;;349.33;201.18;;;;;;;21.37;63.07;98702.78;335925;29;2381;-76
2022/05/30 00:24:15;;;;;;;352.58;199.63;;;;;;;21.37;63.22;98705.44;336827;29;3489;-76
2022/05/30 00:24:26;;;;;;;352.60;201.90;;;;;;;21.38;63.11;98715.09;335582;29;5353;-76
2022/05/30 00:24:36;;;;;;;353.35;201.13;;;;;;;21.36;63.03;98708.25;337735;29;1854;-76
2022/05/30 00:24:46;;;;;;;358.13;206.10;;;;;;;21.37;63.54;98708.09;337795;29;1675;-77
2022/05/30 00:24:57;;;;;;;358.10;204.63;;;;;;;21.35;63.33;98704.75;335718;29;2216;-77
2022/05/30 00:25:07;;;;;;;358.43;205.77;;;;;;;21.36;63.31;98701.09;337447;29;894;-76
2022/05/30 00:25:18;;;;;;;354.80;201.32;;;;;;;21.37;63.55;98707.25;338313;29;1229;-76
2022/05/30 00:25:28;;;;;;;356.73;203.37;;;;;;;21.37;63.29;98708.09;338331;29;2503;-76
2022/05/30 00:25:42;;;;;;;356.33;204.77;;;;;;;21.35;63.56;98715.41;337329;29;1899;-76
2022/05/30 00:25:52;;;;;;;354.65;204.20;;;;;;;21.36;63.63;98706.44;338321;29;1469;-76
2022/05/30 00:26:06;;;;;;;357.00;204.70;;;;;;;21.37;63.46;98713.44;339565;29;1387;-76
2022/05/30 00:26:16;;;;;;;359.25;203.77;;;;;;;21.35;63.32;98710.09;339645;29;1859;-76
2022/05/30 00:26:27;;;;;;;356.50;205.50;;;;;;;21.35;63.74;98714.56;338338;29;1718;-76
2022/05/30 00:26:37;;;;;;;356.77;206.80;;;;;;;21.34;63.56;98708.41;340930;29;1608;-76
2022/05/30 00:26:48;;;;;;;356.98;207.55;;;;;;;21.34;63.42;98713.72;339747;29;862;-76
2022/05/30 00:26:58;;;;;;;356.83;206.77;;;;;;;21.33;63.69;98706.72;338447;29;1956;-77
2022/05/30 00:27:09;;;;;;;354.63;209.00;;;;;;;21.35;63.95;98717.22;339721;29;2470;-77
2022/05/30 00:27:19;;;;;;;353.63;208.10;;;;;;;21.33;63.57;98714.72;339694;29;805;-77
2022/05/30 00:27:30;;;;;;;355.17;209.75;;;;;;;21.34;63.47;98713.72;337815;29;1700;-77
2022/05/30 00:27:40;;;;;;;354.83;208.07;;;;;;;21.34;63.57;98711.06;338252;29;2212;-77
2022/05/30 00:27:50;;;;;;;356.05;208.90;;;;;;;21.33;63.61;98722.69;337000;29;3849;-76
2022/05/30 00:28:01;;;;;;;356.13;208.27;;;;;;;21.33;63.49;98717.38;337237;29;4421;-76
2022/05/30 00:28:11;;;;;;;354.88;208.90;;;;;;;21.33;63.69;98719.22;336912;29;3126;-77
2022/05/30 00:28:22;;;;;;;356.30;206.97;;;;;;;21.30;63.86;98720.34;338364;29;1866;-77
2022/05/30 00:28:33;;;;;;;356.15;207.13;;;;;;;21.32;63.46;98717.53;337965;29;3098;-76
2022/05/30 00:28:43;;;;;;;355.77;205.77;;;;;;;21.32;63.88;98720.19;338315;29;2337;-76
2022/05/30 00:28:54;;;;;;;353.47;206.20;;;;;;;21.29;63.59;98716.00;338379;29;2188;-76
2022/05/30 00:29:05;;;;;;;354.50;208.10;;;;;;;21.29;63.63;98716.00;340355;29;2075;-76
2022/05/30 00:29:15;;;;;;;355.20;209.10;;;;;;;21.30;63.64;98711.53;338735;29;1512;-76
2022/05/30 00:29:26;;;;;;;352.87;210.27;;;;;;;21.27;63.98;98709.16;339544;29;1621;-76
2022/05/30 00:29:38;;;;;;;351.90;211.52;;;;;;;21.27;63.71;98715.31;338303;29;1297;-76
2022/05/30 00:29:48;;;;;;;351.60;210.35;;;;;;;21.29;63.68;98723.16;338531;29;890;-77
2022/05/30 00:29:59;;;;;;;352.97;209.37;;;;;;;21.27;63.85;98720.66;336936;29;2501;-77
2022/05/30 00:30:09;;;;;;;355.10;210.15;;;;;;;21.29;63.86;98721.34;338943;29;1395;-77
2022/05/30 00:30:20;;;;;;;358.60;212.02;;;;;;;21.29;63.87;98718.66;338374;29;926;-77
2022/05/30 00:30:30;;;;;;;359.77;212.13;;;;;;;21.30;64.02;98725.66;338141;29;1455;-77
2022/05/30 00:30:41;;;;;;;360.03;209.83;;;;;;;21.31;63.74;98723.84;337126;29;1708;-76
2022/05/30 00:30:51;;;;;;;358.45;208.43;;;;;;;21.28;63.82;98727.66;338365;29;1093;-76
2022/05/30 00:31:02;;;;;;;357.60;202.83;;;;;;;21.30;63.81;98722.16;339232;29;1607;-76
2022/05/30 00:31:14;;;;;;;358.67;200.73;;;;;;;21.31;63.61;98722.03;339514;29;1646;-77
2022/05/30 00:31:24;;;;;;;354.42;199.70;;;;;;;21.32;63.33;98726.34;340984;29;1724;-77
2022/05/30 00:31:35;;;;;;;352.33;200.73;;;;;;;21.31;63.63;98724.69;338412;29;992;-77
2022/05/30 00:31:46;;;;;;;353.67;204.40;;;;;;;21.28;63.63;98719.66;336400;29;2078;-76
2022/05/30 00:31:56;;;;;;;352.52;205.18;;;;;;;21.29;63.54;98721.34;336177;29;1538;-75
2022/05/30 00:32:07;;;;;;;351.75;202.35;;;;;;;21.31;63.44;98723.84;338211;29;1623;-76
2022/05/30 00:32:18;;;;;;;350.50;201.35;;;;;;;21.30;63.73;98717.69;339524;29;1354;-76
2022/05/30 00:32:28;;;;;;;351.07;200.00;;;;;;;21.28;63.67;98724.16;342192;28;1892;-76
2022/05/30 00:32:39;;;;;;;349.63;199.50;;;;;;;21.27;63.49;98723.31;340887;29;2517;-76
2022/05/30 00:32:49;;;;;;;350.33;201.40;;;;;;;21.25;63.60;98719.97;338426;29;1345;-76
2022/05/30 00:32:59;;;;;;;350.08;203.70;;;;;;;21.23;63.24;98724.59;336360;29;2478;-76
2022/05/30 00:33:10;;;;;;;351.70;208.40;;;;;;;21.20;63.29;98723.06;338209;29;1720;-76
2022/05/30 00:33:21;;;;;;;352.20;207.30;;;;;;;21.20;63.36;98724.91;338270;29;1320;-76
2022/05/30 00:33:31;;;;;;;351.57;203.23;;;;;;;21.19;63.03;98723.22;338244;29;1812;-76
2022/05/30 00:33:42;;;;;;;349.63;202.07;;;;;;;21.18;63.28;98714.41;336699;29;1712;-76
2022/05/30 00:33:52;;;;;;;348.48;201.55;;;;;;;21.20;63.26;98725.75;334028;29;4165;-76
2022/05/30 00:34:05;;;;;;;351.77;203.80;;;;;;;21.21;63.47;98723.94;336726;29;4613;-76
2022/05/30 00:34:15;;;;;;;358.73;204.40;;;;;;;21.20;63.17;98716.91;338037;29;1362;-76
2022/05/30 00:34:26;;;;;;;361.30;206.73;;;;;;;21.23;63.43;98727.25;337117;29;2128;-76
2022/05/30 00:34:37;;;;;;;360.05;208.75;;;;;;;21.21;63.24;98715.97;337022;29;3102;-77
2022/05/30 00:34:47;;;;;;;353.83;204.57;;;;;;;21.21;62.94;98723.94;339569;29;1693;-77
2022/05/30 00:34:58;;;;;;;352.83;203.13;;;;;;;21.20;63.20;98716.91;339300;29;981;-77
2022/05/30 00:35:08;;;;;;;353.80;202.40;;;;;;;21.20;63.05;98719.56;340030;29;1258;-77
2022/05/30 00:35:19;;;;;;;355.73;203.32;;;;;;;21.19;63.25;98720.56;341006;29;850;-77
2022/05/30 00:35:29;;;;;;;355.33;203.80;;;;;;;21.18;63.00;98724.22;338230;29;1457;-77
2022/05/30 00:35:40;;;;;;;354.13;206.37;;;;;;;21.16;63.49;98721.72;339900;28;1354;-77
2022/05/30 00:35:50;;;;;;;355.23;207.07;;;;;;;21.16;63.10;98723.53;339662;29;1301;-76
2022/05/30 00:36:01;;;;;;;355.30;209.03;;;;;;;21.18;62.78;98719.72;338676;29;2403;-76
2022/05/30 00:36:11;;;;;;;356.33;210.23;;;;;;;21.18;63.07;98724.22;338157;29;1976;-76
2022/05/30 00:36:22;;;;;;;354.10;209.23;;;;;;;21.18;63.03;98716.22;340810;29;1191;-76
2022/05/30 00:36:32;;;;;;;352.80;205.55;;;;;;;21.19;63.33;98721.41;340445;29;2283;-76
2022/05/30 00:36:43;;;;;;;354.00;203.80;;;;;;;21.20;62.95;98727.56;340656;29;1702;-76
2022/05/30 00:36:54;;;;;;;352.33;201.10;;;;;;;21.19;62.93;98723.22;338252;29;1323;-76
2022/05/30 00:37:04;;;;;;;351.83;200.57;;;;;;;21.18;63.29;98725.06;339224;29;2084;-76
2022/05/30 00:37:15;;;;;;;350.48;198.82;;;;;;;21.17;63.07;98718.06;338167;29;2361;-76
2022/05/30 00:37:26;;;;;;;352.73;200.23;;;;;;;21.19;62.96;98725.88;336902;29;1466;-76
2022/05/30 00:37:37;;;;;;;353.17;200.30;;;;;;;21.20;63.22;98716.91;338264;29;1521;-77
2022/05/30 00:37:47;;;;;;;354.17;201.73;;;;;;;21.19;63.25;98715.25;339594;29;2058;-77
2022/05/30 00:37:57;;;;;;;354.47;202.13;;;;;;;21.19;63.15;98723.22;337079;29;1917;-76
2022/05/30 00:38:08;;;;;;;352.70;201.68;;;;;;;21.18;62.90;98718.91;338284;29;1278;-76
2022/05/30 00:38:18;;;;;;;354.70;201.50;;;;;;;21.16;63.26;98716.38;342113;28;1491;-76
2022/05/30 00:38:29;;;;;;;354.77;201.80;;;;;;;21.17;63.14;98719.88;340209;29;1417;-76
2022/05/30 00:38:39;;;;;;;356.77;204.50;;;;;;;21.12;63.32;98714.19;338098;29;1468;-76
2022/05/30 00:38:49;;;;;;;354.02;204.48;;;;;;;21.16;63.18;98720.88;335912;29;1307;-76
2022/05/30 00:39:00;;;;;;;355.23;205.00;;;;;;;21.16;63.30;98729.69;337961;29;1463;-76
2022/05/30 00:39:10;;;;;;;356.13;204.37;;;;;;;21.13;63.10;98718.50;338043;29;2137;-76
2022/05/30 00:39:21;;;;;;;357.88;205.35;;;;;;;21.13;63.15;98721.16;336980;29;1219;-76
2022/05/30 00:39:32;;;;;;;356.33;204.30;;;;;;;21.09;63.01;98714.47;337867;29;2551;-76
2022/05/30 00:39:42;;;;;;;355.38;200.35;;;;;;;21.10;63.50;98727.63;340803;29;1492;-76
2022/05/30 00:39:53;;;;;;;354.33;197.73;;;;;;;21.08;63.45;98724.28;341111;29;960;-76
2022/05/30 00:40:04;;;;;;;356.40;199.90;;;;;;;21.10;63.44;98727.63;336829;29;1501;-76
2022/05/30 00:40:14;;;;;;;354.42;201.35;;;;;;;21.13;63.58;98723.84;338294;29;1665;-76
2022/05/30 00:40:25;;;;;;;353.80;203.10;;;;;;;21.10;63.41;98713.50;340895;29;1205;-76
2022/05/30 00:40:35;;;;;;;355.47;202.97;;;;;;;21.12;63.93;98725.66;339028;29;1424;-77
2022/05/30 00:40:46;;;;;;;356.67;201.25;;;;;;;21.13;63.35;98715.84;337005;29;1602;-77
2022/05/30 00:40:57;;;;;;;353.33;198.67;;;;;;;21.14;63.33;98728.16;339750;29;2380;-77
2022/05/30 00:41:07;;;;;;;352.90;200.70;;;;;;;21.13;63.55;98719.34;339624;29;1333;-77
2022/05/30 00:41:18;;;;;;;355.83;200.37;;;;;;;21.11;63.48;98723.16;336747;29;2374;-77
2022/05/30 00:41:28;;;;;;;357.95;201.02;;;;;;;21.13;63.41;98727.34;337158;29;1743;-77
2022/05/30 00:41:39;;;;;;;357.30;202.00;;;;;;;21.13;63.56;98723.84;338813;29;1306;-77
2022/05/30 00:41:49;;;;;;;355.58;203.68;;;;;;;21.15;63.46;98724.53;337001;29;1586;-75
2022/05/30 00:42:13;;;;;;;354.23;202.50;;;;;;;21.15;63.19;98721.84;335519;29;1767;-75
2022/05/30 00:42:25;;;;;;;345.52;195.45;;;;;;;21.14;63.15;98725.50;338245;29;913;-76
2022/05/30 00:42:35;;;;;;;346.38;198.07;;;;;;;21.14;63.41;98728.16;340877;29;2462;-76
2022/05/30 00:42:46;;;;;;;346.20;197.60;;;;;;;21.15;63.13;98722.69;339166;29;1697;-76
2022/05/30 00:42:56;;;;;;;351.33;200.07;;;;;;;21.16;63.04;98727.03;338070;29;1496;-76
2022/05/30 00:43:23;;;;;;;353.50;200.17;;;;;;;21.18;63.00;98724.22;337907;29;3835;-76
2022/05/30 00:43:35;;;;;;;351.50;203.82;;;;;;;21.15;63.09;98724.53;339294;29;2419;-77
2022/05/30 00:43:46;;;;;;;351.73;203.20;;;;;;;21.14;63.28;98728.16;339355;29;5368;-77
2022/05/30 00:43:57;;;;;;;349.55;202.60;;;;;;;21.13;63.28;98722.00;338290;29;1688;-77
2022/05/30 00:44:07;;;;;;;349.77;200.63;;;;;;;21.13;63.10;98718.50;338426;29;1840;-77
2022/05/30 00:44:17;;;;;;;349.67;199.70;;;;;;;21.12;63.17;98722.16;338758;29;1625;-77
2022/05/30 00:44:28;;;;;;;349.52;201.05;;;;;;;21.10;63.39;98718.81;336949;29;2080;-78
2022/05/30 00:44:42;;;;;;;351.03;203.87;;;;;;;21.12;63.21;98724.81;338267;29;1262;-77
2022/05/30 00:44:53;;;;;;;353.95;204.45;;;;;;;21.12;63.28;98724.81;339925;29;1550;-77
2022/05/30 00:45:04;;;;;;;357.02;203.77;;;;;;;21.12;63.64;98719.50;339212;29;1569;-77
2022/05/30 00:45:15;;;;;;;358.42;206.00;;;;;;;21.12;63.37;98719.50;336795;29;1549;-77
2022/05/30 00:45:26;;;;;;;358.42;206.35;;;;;;;21.14;63.51;98728.16;340874;29;2047;-77
2022/05/30 00:45:36;;;;;;;357.30;204.35;;;;;;;21.14;63.29;98723.69;339764;29;1229;-77
2022/05/30 00:45:47;;;;;;;354.90;199.47;;;;;;;21.13;63.41;98723.84;340494;29;1577;-77
2022/05/30 00:46:00;;;;;;;352.42;198.25;;;;;;;21.13;63.58;98722.00;338524;29;1453;-77
2022/05/30 00:46:12;;;;;;;353.38;200.95;;;;;;;21.11;63.51;98723.16;337319;29;1931;-77
2022/05/30 00:46:23;;;;;;;351.48;201.32;;;;;;;21.10;63.54;98717.00;336938;29;959;-77
2022/05/30 00:46:33;;;;;;;352.10;200.70;;;;;;;21.08;63.54;98713.63;336614;29;1465;-77
2022/05/30 00:46:43;;;;;;;352.38;196.95;;;;;;;21.09;63.42;98714.47;337425;29;2024;-78
2022/05/30 00:46:54;;;;;;;351.53;198.10;;;;;;;21.09;63.70;98717.13;339693;29;1208;-77
2022/05/30 00:47:04;;;;;;;349.08;195.00;;;;;;;21.09;63.50;98720.63;339588;29;1645;-77
2022/05/30 00:47:16;;;;;;;348.40;197.97;;;;;;;21.10;63.13;98718.81;339598;29;2596;-77
2022/05/30 00:47:26;;;;;;;348.10;196.88;;;;;;;21.10;63.50;98722.31;340963;29;921;-77
2022/05/30 00:47:38;;;;;;;349.70;198.00;;;;;;;21.10;63.26;98713.50;342244;28;2143;-77
2022/05/30 00:47:50;;;;;;;349.58;198.63;;;;;;;21.09;63.31;98714.47;340907;29;1533;-77
2022/05/30 00:48:00;;;;;;;350.38;199.88;;;;;;;21.09;63.27;98714.47;338564;29;2275;-76
2022/05/30 00:48:11;;;;;;;350.30;200.73;;;;;;;21.09;63.53;98719.78;335745;29;1073;-76
2022/05/30 00:48:23;;;;;;;349.48;199.48;;;;;;;21.08;63.31;98718.97;338161;29;1881;-76
2022/05/30 00:48:38;;;;;;;347.85;197.52;;;;;;;21.10;63.03;98716.16;338413;29;1720;-76
2022/05/30 00:48:58;;;;;;;351.15;199.48;;;;;;;21.09;63.40;98719.78;339135;29;1784;-76
2022/05/30 00:49:12;;;;;;;350.05;196.80;;;;;;;21.10;63.32;98719.66;338374;29;1894;-77
2022/05/30 00:49:23;;;;;;;346.42;196.45;;;;;;;21.12;63.18;98720.34;338402;29;1071;-77
2022/05/30 00:49:34;;;;;;;345.40;193.40;;;;;;;21.13;63.17;98711.38;338405;29;1833;-77
2022/05/30 00:49:45;;;;;;;346.05;194.32;;;;;;;21.13;62.90;98721.16;338392;29;1674;-78
2022/05/30 00:49:56;;;;;;;349.25;199.98;;;;;;;21.10;63.23;98710.81;339614;29;1514;-77
2022/05/30 00:50:07;;;;;;;351.45;200.57;;;;;;;21.12;63.02;98722.16;338141;29;2650;-77
2022/05/30 00:50:19;;;;;;;351.80;199.57;;;;;;;21.08;63.20;98716.31;337224;29;1313;-77
2022/05/30 00:50:29;;;;;;;351.85;198.93;;;;;;;21.09;62.92;98714.47;335884;29;1454;-77
2022/05/30 00:50:39;;;;;;;352.20;199.90;;;;;;;21.08;63.41;98718.13;339704;29;1029;-77
2022/05/30 00:50:51;;;;;;;355.13;201.00;;;;;;;21.09;63.06;98717.13;338734;29;1663;-77
2022/05/30 00:51:04;;;;;;;355.90;200.65;;;;;;;21.08;63.13;98712.81;336877;29;1791;-75